sensor_id;sensor_type;location;lat;lon;timestamp;pressure;altitude;pressure_sealevel;temperature;humidity
21623;BME280;10973;46.706;12.340;2023-02-21T00:00:48;87753.63;;;4.09;50.07
21623;BME280;10973;46.706;12.340;2023-02-21T00:03:15;87751.09;;;4.01;50.47
21623;BME280;10973;46.706;12.340;2023-02-21T00:05:42;87754.72;;;4.08;49.85
21623;BME280;10973;46.706;12.340;2023-02-21T00:08:09;87745.16;;;4.12;49.77
21623;BME280;10973;46.706;12.340;2023-02-21T00:10:37;87750.47;;;4.16;49.78
21623;BME280;10973;46.706;12.340;2023-02-21T00:13:04;87749.06;;;4.18;49.99
21623;BME280;10973;46.706;12.340;2023-02-21T00:15:31;87742.22;;;4.14;49.86
21623;BME280;10973;46.706;12.340;2023-02-21T00:17:59;87741.91;;;4.15;49.58
21623;BME280;10973;46.706;12.340;2023-02-21T00:20:26;87730.09;;;4.18;49.45
21623;BME280;10973;46.706;12.340;2023-02-21T00:22:53;87735.50;;;4.13;49.96
21623;BME280;10973;46.706;12.340;2023-02-21T00:25:21;87736.13;;;4.10;49.71
21623;BME280;10973;46.706;12.340;2023-02-21T00:33:16;87730.16;;;3.97;49.94
21623;BME280;10973;46.706;12.340;2023-02-21T00:35:44;87732.41;;;3.99;50.31
21623;BME280;10973;46.706;12.340;2023-02-21T00:38:12;87742.22;;;3.69;50.37
21623;BME280;10973;46.706;12.340;2023-02-21T00:40:39;87725.94;;;3.72;50.94
21623;BME280;10973;46.706;12.340;2023-02-21T00:43:06;87748.31;;;3.73;50.81
21623;BME280;10973;46.706;12.340;2023-02-21T00:45:33;87746.56;;;3.77;50.57
21623;BME280;10973;46.706;12.340;2023-02-21T00:48:01;87746.56;;;3.77;50.27
21623;BME280;10973;46.706;12.340;2023-02-21T00:50:28;87737.19;;;3.64;51.06
21623;BME280;10973;46.706;12.340;2023-02-21T00:52:55;87741.88;;;3.71;50.82
21623;BME280;10973;46.706;12.340;2023-02-21T00:55:23;87739.59;;;3.69;51.13
21623;BME280;10973;46.706;12.340;2023-02-21T00:57:50;87740.38;;;3.70;50.93
21623;BME280;10973;46.706;12.340;2023-02-21T01:00:22;87718.31;;;3.67;50.67
21623;BME280;10973;46.706;12.340;2023-02-21T01:02:50;87727.63;;;3.56;50.96
21623;BME280;10973;46.706;12.340;2023-02-21T01:09:23;87737.16;;;3.52;51.55
21623;BME280;10973;46.706;12.340;2023-02-21T01:11:50;87734.59;;;3.64;51.01
21623;BME280;10973;46.706;12.340;2023-02-21T01:14:18;87738.59;;;3.61;51.03
21623;BME280;10973;46.706;12.340;2023-02-21T01:16:45;87733.13;;;3.54;51.92
21623;BME280;10973;46.706;12.340;2023-02-21T01:19:13;87734.78;;;3.59;51.41
21623;BME280;10973;46.706;12.340;2023-02-21T01:21:41;87731.63;;;3.53;51.61
21623;BME280;10973;46.706;12.340;2023-02-21T01:24:14;87731.09;;;3.60;51.46
21623;BME280;10973;46.706;12.340;2023-02-21T01:30:41;87732.50;;;3.57;51.61
21623;BME280;10973;46.706;12.340;2023-02-21T01:33:10;87722.84;;;3.58;51.92
21623;BME280;10973;46.706;12.340;2023-02-21T01:35:38;87713.31;;;3.62;51.93
21623;BME280;10973;46.706;12.340;2023-02-21T01:38:05;87720.78;;;3.63;51.67
21623;BME280;10973;46.706;12.340;2023-02-21T01:40:33;87710.84;;;3.66;51.69
21623;BME280;10973;46.706;12.340;2023-02-21T01:43:00;87710.84;;;3.66;51.45
21623;BME280;10973;46.706;12.340;2023-02-21T01:45:49;87702.53;;;3.63;51.51
21623;BME280;10973;46.706;12.340;2023-02-21T01:48:20;87700.59;;;3.60;51.75
21623;BME280;10973;46.706;12.340;2023-02-21T01:50:49;87698.44;;;3.63;51.88
21623;BME280;10973;46.706;12.340;2023-02-21T01:53:23;87688.78;;;3.63;51.58
21623;BME280;10973;46.706;12.340;2023-02-21T01:55:55;87692.91;;;3.64;51.49
21623;BME280;10973;46.706;12.340;2023-02-21T01:58:24;87675.31;;;3.61;51.86
21623;BME280;10973;46.706;12.340;2023-02-21T02:04:57;87675.75;;;3.63;51.28
21623;BME280;10973;46.706;12.340;2023-02-21T02:14:49;87680.16;;;3.50;51.29
21623;BME280;10973;46.706;12.340;2023-02-21T02:44:20;87667.50;;;3.08;51.78
21623;BME280;10973;46.706;12.340;2023-02-21T02:46:52;87654.06;;;3.06;51.55
21623;BME280;10973;46.706;12.340;2023-02-21T02:53:27;87646.69;;;2.87;51.88
21623;BME280;10973;46.706;12.340;2023-02-21T02:59:55;87633.88;;;2.82;52.08
21623;BME280;10973;46.706;12.340;2023-02-21T03:05:38;87632.91;;;2.86;52.51
21623;BME280;10973;46.706;12.340;2023-02-21T03:11:17;87632.97;;;2.78;52.18
21623;BME280;10973;46.706;12.340;2023-02-21T03:17:56;87629.50;;;2.74;52.30
21623;BME280;10973;46.706;12.340;2023-02-21T03:20:28;87619.53;;;2.76;52.20
21623;BME280;10973;46.706;12.340;2023-02-21T03:22:57;87627.34;;;2.76;52.25
21623;BME280;10973;46.706;12.340;2023-02-21T03:25:28;87614.00;;;2.77;52.06
21623;BME280;10973;46.706;12.340;2023-02-21T03:27:55;87618.13;;;2.78;52.32
21623;BME280;10973;46.706;12.340;2023-02-21T03:30:23;87620.75;;;2.78;51.96
21623;BME280;10973;46.706;12.340;2023-02-21T03:36:57;87619.28;;;2.69;52.13
21623;BME280;10973;46.706;12.340;2023-02-21T03:39:24;87614.22;;;2.72;51.68
21623;BME280;10973;46.706;12.340;2023-02-21T03:41:51;87617.44;;;2.69;52.32
21623;BME280;10973;46.706;12.340;2023-02-21T03:52:18;87612.06;;;2.54;51.97
21623;BME280;10973;46.706;12.340;2023-02-21T03:54:45;87604.69;;;2.56;52.24
21623;BME280;10973;46.706;12.340;2023-02-21T03:57:13;87607.81;;;2.49;52.42
21623;BME280;10973;46.706;12.340;2023-02-21T03:59:40;87610.84;;;2.51;52.05
21623;BME280;10973;46.706;12.340;2023-02-21T04:06:14;87610.66;;;2.36;52.32
21623;BME280;10973;46.706;12.340;2023-02-21T04:08:41;87609.38;;;2.42;51.99
21623;BME280;10973;46.706;12.340;2023-02-21T04:15:15;87608.81;;;2.36;52.06
21623;BME280;10973;46.706;12.340;2023-02-21T04:17:42;87606.22;;;2.36;51.76
21623;BME280;10973;46.706;12.340;2023-02-21T04:24:09;87611.16;;;2.29;51.83
21623;BME280;10973;46.706;12.340;2023-02-21T04:26:36;87604.09;;;2.30;51.94
21623;BME280;10973;46.706;12.340;2023-02-21T04:29:04;87603.38;;;2.21;51.93
21623;BME280;10973;46.706;12.340;2023-02-21T04:31:32;87603.59;;;2.15;51.99
21623;BME280;10973;46.706;12.340;2023-02-21T04:34:00;87600.03;;;2.20;52.39
21623;BME280;10973;46.706;12.340;2023-02-21T04:36:38;87599.59;;;2.18;51.90
21623;BME280;10973;46.706;12.340;2023-02-21T04:39:07;87602.50;;;2.16;52.06
21623;BME280;10973;46.706;12.340;2023-02-21T04:41:34;87589.94;;;2.18;51.95
21623;BME280;10973;46.706;12.340;2023-02-21T04:44:01;87595.16;;;2.18;52.29
21623;BME280;10973;46.706;12.340;2023-02-21T04:46:29;87588.72;;;2.16;51.81
21623;BME280;10973;46.706;12.340;2023-02-21T04:48:56;87598.69;;;2.14;52.05
21623;BME280;10973;46.706;12.340;2023-02-21T04:51:25;87589.81;;;2.15;52.13
21623;BME280;10973;46.706;12.340;2023-02-21T04:53:53;87586.97;;;2.08;52.09
21623;BME280;10973;46.706;12.340;2023-02-21T05:00:28;87570.03;;;2.02;51.90
21623;BME280;10973;46.706;12.340;2023-02-21T05:02:55;87564.97;;;2.05;52.15
21623;BME280;10973;46.706;12.340;2023-02-21T05:05:23;87563.44;;;2.04;52.02
21623;BME280;10973;46.706;12.340;2023-02-21T05:07:51;87568.78;;;2.08;51.95
21623;BME280;10973;46.706;12.340;2023-02-21T05:10:18;87562.81;;;2.07;51.47
21623;BME280;10973;46.706;12.340;2023-02-21T05:12:46;87555.84;;;1.99;51.88
21623;BME280;10973;46.706;12.340;2023-02-21T05:15:14;87559.16;;;2.00;51.45
21623;BME280;10973;46.706;12.340;2023-02-21T05:17:41;87560.59;;;1.97;51.71
21623;BME280;10973;46.706;12.340;2023-02-21T05:24:15;87555.88;;;1.91;51.61
21623;BME280;10973;46.706;12.340;2023-02-21T05:30:48;87547.44;;;1.94;51.01
21623;BME280;10973;46.706;12.340;2023-02-21T05:33:15;87546.81;;;1.97;50.72
21623;BME280;10973;46.706;12.340;2023-02-21T05:35:43;87546.81;;;1.97;51.04
21623;BME280;10973;46.706;12.340;2023-02-21T05:38:10;87543.59;;;2.00;50.89
21623;BME280;10973;46.706;12.340;2023-02-21T05:40:37;87547.38;;;2.02;51.29
21623;BME280;10973;46.706;12.340;2023-02-21T05:43:04;87540.97;;;2.00;51.12
21623;BME280;10973;46.706;12.340;2023-02-21T05:45:32;87535.03;;;1.99;51.19
21623;BME280;10973;46.706;12.340;2023-02-21T05:47:59;87538.16;;;1.93;50.67
21623;BME280;10973;46.706;12.340;2023-02-21T05:50:27;87541.81;;;1.92;50.64
21623;BME280;10973;46.706;12.340;2023-02-21T05:52:57;87530.09;;;1.86;50.81
21623;BME280;10973;46.706;12.340;2023-02-21T05:55:25;87520.94;;;1.80;51.05
21623;BME280;10973;46.706;12.340;2023-02-21T05:57:52;87527.22;;;1.79;51.22
21623;BME280;10973;46.706;12.340;2023-02-21T06:00:25;87529.16;;;1.82;51.20
21623;BME280;10973;46.706;12.340;2023-02-21T06:06:52;87541.00;;;1.71;50.97
21623;BME280;10973;46.706;12.340;2023-02-21T06:09:19;87534.41;;;1.73;50.52
21623;BME280;10973;46.706;12.340;2023-02-21T06:11:47;87530.34;;;1.64;50.74
21623;BME280;10973;46.706;12.340;2023-02-21T06:14:19;87532.19;;;1.63;51.26
21623;BME280;10973;46.706;12.340;2023-02-21T06:16:47;87535.59;;;1.55;50.97
21623;BME280;10973;46.706;12.340;2023-02-21T06:19:15;87543.81;;;1.57;50.86
21623;BME280;10973;46.706;12.340;2023-02-21T06:21:44;87543.69;;;1.54;51.06
21623;BME280;10973;46.706;12.340;2023-02-21T06:28:18;87547.09;;;1.45;51.30
21623;BME280;10973;46.706;12.340;2023-02-21T06:30:45;87555.34;;;1.48;51.63
21623;BME280;10973;46.706;12.340;2023-02-21T06:33:18;87557.63;;;1.49;51.53
21623;BME280;10973;46.706;12.340;2023-02-21T06:35:47;87563.31;;;1.42;51.40
21623;BME280;10973;46.706;12.340;2023-02-21T06:38:14;87554.13;;;1.45;51.24
21623;BME280;10973;46.706;12.340;2023-02-21T06:40:42;87559.31;;;1.45;51.73
21623;BME280;10973;46.706;12.340;2023-02-21T06:43:09;87561.00;;;1.41;51.51
21623;BME280;10973;46.706;12.340;2023-02-21T06:49:36;87564.81;;;1.43;51.34
21623;BME280;10973;46.706;12.340;2023-02-21T06:52:05;87562.97;;;1.44;51.17
21623;BME280;10973;46.706;12.340;2023-02-21T06:54:32;87568.19;;;1.44;51.42
21623;BME280;10973;46.706;12.340;2023-02-21T06:56:59;87563.25;;;1.51;51.13
21623;BME280;10973;46.706;12.340;2023-02-21T06:59:28;87564.81;;;1.52;51.14
21623;BME280;10973;46.706;12.340;2023-02-21T07:01:56;87575.63;;;1.54;50.87
21623;BME280;10973;46.706;12.340;2023-02-21T07:04:24;87573.78;;;1.55;51.01
21623;BME280;10973;46.706;12.340;2023-02-21T07:06:52;87569.78;;;1.57;51.01
21623;BME280;10973;46.706;12.340;2023-02-21T07:09:19;87575.44;;;1.59;51.05
21623;BME280;10973;46.706;12.340;2023-02-21T07:11:46;87577.88;;;1.64;51.25
21623;BME280;10973;46.706;12.340;2023-02-21T07:14:14;87583.00;;;1.73;51.01
21623;BME280;10973;46.706;12.340;2023-02-21T07:16:41;87583.59;;;1.78;50.66
21623;BME280;10973;46.706;12.340;2023-02-21T07:19:08;87576.41;;;1.84;50.57
21623;BME280;10973;46.706;12.340;2023-02-21T07:21:37;87586.75;;;1.92;50.42
21623;BME280;10973;46.706;12.340;2023-02-21T07:24:07;87580.16;;;1.95;50.30
21623;BME280;10973;46.706;12.340;2023-02-21T07:26:35;87577.19;;;2.05;50.13
21623;BME280;10973;46.706;12.340;2023-02-21T07:29:03;87580.06;;;2.12;50.32
21623;BME280;10973;46.706;12.340;2023-02-21T07:31:31;87570.69;;;2.20;50.28
21623;BME280;10973;46.706;12.340;2023-02-21T07:33:59;87559.16;;;2.29;50.24
21623;BME280;10973;46.706;12.340;2023-02-21T07:36:26;87561.06;;;2.41;49.97
21623;BME280;10973;46.706;12.340;2023-02-21T07:38:54;87563.78;;;2.44;50.01
21623;BME280;10973;46.706;12.340;2023-02-21T07:41:21;87564.47;;;2.53;49.94
21623;BME280;10973;46.706;12.340;2023-02-21T07:51:52;87559.13;;;2.70;50.13
21623;BME280;10973;46.706;12.340;2023-02-21T07:54:20;87562.66;;;2.86;49.87
21623;BME280;10973;46.706;12.340;2023-02-21T07:56:48;87564.09;;;2.96;49.44
21623;BME280;10973;46.706;12.340;2023-02-21T07:59:16;87568.78;;;3.03;49.78
21623;BME280;10973;46.706;12.340;2023-02-21T08:01:43;87557.19;;;3.12;49.67
21623;BME280;10973;46.706;12.340;2023-02-21T08:04:10;87557.34;;;3.16;49.60
21623;BME280;10973;46.706;12.340;2023-02-21T08:06:38;87550.63;;;3.27;50.07
21623;BME280;10973;46.706;12.340;2023-02-21T08:09:05;87554.66;;;3.36;49.43
21623;BME280;10973;46.706;12.340;2023-02-21T08:11:32;87550.88;;;3.46;49.38
21623;BME280;10973;46.706;12.340;2023-02-21T08:13:59;87549.69;;;3.55;49.12
21623;BME280;10973;46.706;12.340;2023-02-21T08:16:27;87556.41;;;3.69;49.30
21623;BME280;10973;46.706;12.340;2023-02-21T08:18:54;87556.97;;;3.74;48.54
21623;BME280;10973;46.706;12.340;2023-02-21T08:21:22;87553.50;;;3.82;48.36
21623;BME280;10973;46.706;12.340;2023-02-21T08:23:53;87547.63;;;3.85;48.61
21623;BME280;10973;46.706;12.340;2023-02-21T08:26:22;87551.00;;;3.98;48.48
21623;BME280;10973;46.706;12.340;2023-02-21T08:36:49;87540.75;;;4.29;48.11
21623;BME280;10973;46.706;12.340;2023-02-21T08:39:17;87542.13;;;4.39;47.89
21623;BME280;10973;46.706;12.340;2023-02-21T08:41:46;87539.44;;;4.47;47.68
21623;BME280;10973;46.706;12.340;2023-02-21T08:44:15;87530.69;;;4.55;47.14
21623;BME280;10973;46.706;12.340;2023-02-21T08:50:43;87528.34;;;4.78;46.44
21623;BME280;10973;46.706;12.340;2023-02-21T08:53:13;87539.50;;;4.90;46.58
21623;BME280;10973;46.706;12.340;2023-02-21T08:55:41;87530.41;;;5.00;46.29
21623;BME280;10973;46.706;12.340;2023-02-21T08:58:11;87534.50;;;5.13;46.71
21623;BME280;10973;46.706;12.340;2023-02-21T09:00:38;87530.22;;;5.21;45.88
21623;BME280;10973;46.706;12.340;2023-02-21T09:03:06;87528.22;;;5.30;45.69
21623;BME280;10973;46.706;12.340;2023-02-21T09:05:33;87533.31;;;5.38;44.96
21623;BME280;10973;46.706;12.340;2023-02-21T09:08:00;87521.16;;;5.46;44.58
21623;BME280;10973;46.706;12.340;2023-02-21T09:10:31;87524.28;;;5.51;44.47
21623;BME280;10973;46.706;12.340;2023-02-21T09:13:00;87528.34;;;5.64;44.84
21623;BME280;10973;46.706;12.340;2023-02-21T09:19:27;87521.53;;;5.91;44.18
21623;BME280;10973;46.706;12.340;2023-02-21T09:21:55;87519.06;;;5.98;44.26
21623;BME280;10973;46.706;12.340;2023-02-21T09:24:24;87515.19;;;6.08;44.11
21623;BME280;10973;46.706;12.340;2023-02-21T09:26:54;87516.84;;;6.16;43.51
21623;BME280;10973;46.706;12.340;2023-02-21T09:33:21;87513.06;;;6.29;43.10
21623;BME280;10973;46.706;12.340;2023-02-21T09:35:51;87507.63;;;6.37;43.85
21623;BME280;10973;46.706;12.340;2023-02-21T09:42:50;87499.72;;;6.53;43.78
21623;BME280;10973;46.706;12.340;2023-02-21T09:45:20;87503.25;;;6.61;42.20
21623;BME280;10973;46.706;12.340;2023-02-21T09:51:49;87487.88;;;6.78;43.97
21623;BME280;10973;46.706;12.340;2023-02-21T09:54:39;87495.53;;;6.87;44.11
21623;BME280;10973;46.706;12.340;2023-02-21T09:57:17;87484.16;;;6.98;43.47
21623;BME280;10973;46.706;12.340;2023-02-21T09:59:47;87480.56;;;7.06;43.77
21623;BME280;10973;46.706;12.340;2023-02-21T10:02:47;87476.97;;;7.14;44.65
21623;BME280;10973;46.706;12.340;2023-02-21T10:05:32;87478.69;;;7.26;44.28
21623;BME280;10973;46.706;12.340;2023-02-21T10:12:33;87470.03;;;7.45;44.16
21623;BME280;10973;46.706;12.340;2023-02-21T10:21:00;87473.06;;;7.69;43.29
21623;BME280;10973;46.706;12.340;2023-02-21T10:27:31;87465.63;;;7.98;43.18
21623;BME280;10973;46.706;12.340;2023-02-21T10:30:04;87463.50;;;8.07;42.76
21623;BME280;10973;46.706;12.340;2023-02-21T10:32:32;87462.13;;;8.13;41.90
21623;BME280;10973;46.706;12.340;2023-02-21T10:34:59;87464.13;;;8.23;41.78
21623;BME280;10973;46.706;12.340;2023-02-21T10:46:23;87447.03;;;8.58;40.13
21623;BME280;10973;46.706;12.340;2023-02-21T10:48:57;87449.38;;;8.67;40.11
21623;BME280;10973;46.706;12.340;2023-02-21T10:51:32;87449.50;;;8.78;39.55
21623;BME280;10973;46.706;12.340;2023-02-21T10:58:17;87446.69;;;8.93;39.05
21623;BME280;10973;46.706;12.340;2023-02-21T11:00:53;87433.22;;;8.98;39.55
21623;BME280;10973;46.706;12.340;2023-02-21T11:03:23;87439.38;;;9.09;40.28
21623;BME280;10973;46.706;12.340;2023-02-21T11:05:54;87428.94;;;9.16;40.45
21623;BME280;10973;46.706;12.340;2023-02-21T11:08:41;87429.78;;;9.27;39.25
21623;BME280;10973;46.706;12.340;2023-02-21T11:15:17;87430.41;;;9.54;38.34
21623;BME280;10973;46.706;12.340;2023-02-21T11:30:14;87402.13;;;10.35;38.51
21623;BME280;10973;46.706;12.340;2023-02-21T11:37:03;87394.34;;;12.13;35.20
21623;BME280;10973;46.706;12.340;2023-02-21T11:39:32;87387.63;;;13.41;33.98
21623;BME280;10973;46.706;12.340;2023-02-21T11:46:14;87368.56;;;16.48;28.86
21623;BME280;10973;46.706;12.340;2023-02-21T11:48:54;87364.91;;;17.47;26.46
21623;BME280;10973;46.706;12.340;2023-02-21T11:51:38;87364.53;;;18.56;25.33
21623;BME280;10973;46.706;12.340;2023-02-21T11:58:26;87351.53;;;20.55;22.84
21623;BME280;10973;46.706;12.340;2023-02-21T12:01:08;87348.31;;;21.19;22.09
21623;BME280;10973;46.706;12.340;2023-02-21T12:11:51;87327.06;;;23.22;17.78
21623;BME280;10973;46.706;12.340;2023-02-21T12:14:31;87316.97;;;23.98;16.67
21623;BME280;10973;46.706;12.340;2023-02-21T12:44:20;87284.78;;;23.04;14.21
21623;BME280;10973;46.706;12.340;2023-02-21T12:47:13;87287.22;;;22.62;14.25
21623;BME280;10973;46.706;12.340;2023-02-21T12:50:05;87277.50;;;22.16;14.70
21623;BME280;10973;46.706;12.340;2023-02-21T12:55:30;87280.41;;;21.78;14.72
21623;BME280;10973;46.706;12.340;2023-02-21T13:01:11;87271.19;;;21.36;15.99
21623;BME280;10973;46.706;12.340;2023-02-21T13:10:37;87263.47;;;21.04;16.75
21623;BME280;10973;46.706;12.340;2023-02-21T13:13:31;87258.09;;;20.70;17.00
21623;BME280;10973;46.706;12.340;2023-02-21T13:16:05;87256.53;;;20.47;17.68
21623;BME280;10973;46.706;12.340;2023-02-21T13:18:41;87262.56;;;20.26;18.28
21623;BME280;10973;46.706;12.340;2023-02-21T13:28:32;87260.41;;;19.70;21.15
21623;BME280;10973;46.706;12.340;2023-02-21T13:31:05;87263.16;;;19.54;21.20
21623;BME280;10973;46.706;12.340;2023-02-21T13:33:44;87255.19;;;19.38;21.38
21623;BME280;10973;46.706;12.340;2023-02-21T13:39:26;87247.00;;;19.16;22.58
21623;BME280;10973;46.706;12.340;2023-02-21T13:42:09;87252.69;;;19.18;22.77
21623;BME280;10973;46.706;12.340;2023-02-21T13:45:23;87246.00;;;19.10;22.32
21623;BME280;10973;46.706;12.340;2023-02-21T13:54:31;87248.34;;;18.67;24.32
21623;BME280;10973;46.706;12.340;2023-02-21T13:57:02;87254.50;;;18.64;23.46
21623;BME280;10973;46.706;12.340;2023-02-21T13:59:33;87251.59;;;18.59;23.27
21623;BME280;10973;46.706;12.340;2023-02-21T14:08:42;87239.34;;;18.45;24.42
21623;BME280;10973;46.706;12.340;2023-02-21T14:11:23;87247.44;;;18.41;23.33
21623;BME280;10973;46.706;12.340;2023-02-21T14:13:57;87243.34;;;18.21;24.36
21623;BME280;10973;46.706;12.340;2023-02-21T14:16:48;87245.53;;;17.94;24.64
21623;BME280;10973;46.706;12.340;2023-02-21T14:19:25;87252.34;;;17.78;24.78
21623;BME280;10973;46.706;12.340;2023-02-21T14:32:44;87255.88;;;16.81;26.46
21623;BME280;10973;46.706;12.340;2023-02-21T14:35:34;87245.03;;;16.72;26.56
21623;BME280;10973;46.706;12.340;2023-02-21T14:38:06;87253.00;;;16.72;26.14
21623;BME280;10973;46.706;12.340;2023-02-21T14:49:45;87247.41;;;15.50;28.03
21623;BME280;10973;46.706;12.340;2023-02-21T15:07:51;87257.22;;;13.37;31.00
21623;BME280;10973;46.706;12.340;2023-02-21T15:10:26;87249.41;;;13.16;31.03
21623;BME280;10973;46.706;12.340;2023-02-21T15:17:17;87256.81;;;12.66;32.25
21623;BME280;10973;46.706;12.340;2023-02-21T15:19:45;87255.34;;;12.54;32.42
21623;BME280;10973;46.706;12.340;2023-02-21T15:22:23;87260.69;;;12.44;32.90
21623;BME280;10973;46.706;12.340;2023-02-21T15:25:11;87252.81;;;12.33;32.75
21623;BME280;10973;46.706;12.340;2023-02-21T15:27:53;87256.25;;;12.16;32.99
21623;BME280;10973;46.706;12.340;2023-02-21T15:34:22;87251.78;;;11.81;33.87
21623;BME280;10973;46.706;12.340;2023-02-21T15:37:02;87261.25;;;11.72;34.56
21623;BME280;10973;46.706;12.340;2023-02-21T15:39:37;87263.47;;;11.59;35.02
21623;BME280;10973;46.706;12.340;2023-02-21T15:42:09;87259.31;;;11.40;35.50
21623;BME280;10973;46.706;12.340;2023-02-21T15:44:48;87264.59;;;11.23;35.50
21623;BME280;10973;46.706;12.340;2023-02-21T15:47:23;87261.94;;;11.09;35.89
21623;BME280;10973;46.706;12.340;2023-02-21T15:54:26;87262.28;;;10.86;35.64
21623;BME280;10973;46.706;12.340;2023-02-21T15:57:04;87268.31;;;10.83;36.10
21623;BME280;10973;46.706;12.340;2023-02-21T15:59:36;87261.13;;;10.73;36.24
21623;BME280;10973;46.706;12.340;2023-02-21T16:02:19;87260.72;;;10.64;36.68
21623;BME280;10973;46.706;12.340;2023-02-21T16:04:50;87261.47;;;10.57;36.75
21623;BME280;10973;46.706;12.340;2023-02-21T16:11:58;87267.72;;;10.25;37.35
21623;BME280;10973;46.706;12.340;2023-02-21T16:14:45;87271.09;;;10.15;37.71
21623;BME280;10973;46.706;12.340;2023-02-21T16:17:34;87271.75;;;10.04;38.20
21623;BME280;10973;46.706;12.340;2023-02-21T16:20:27;87266.41;;;9.90;38.31
21623;BME280;10973;46.706;12.340;2023-02-21T16:30:05;87284.19;;;9.50;38.43
21623;BME280;10973;46.706;12.340;2023-02-21T16:32:33;87284.56;;;9.45;38.44
21623;BME280;10973;46.706;12.340;2023-02-21T16:43:06;87298.19;;;9.10;39.64
21623;BME280;10973;46.706;12.340;2023-02-21T16:45:33;87289.84;;;9.01;39.81
21623;BME280;10973;46.706;12.340;2023-02-21T16:48:03;87300.66;;;8.96;39.78
21623;BME280;10973;46.706;12.340;2023-02-21T16:50:35;87304.38;;;8.88;39.99
21623;BME280;10973;46.706;12.340;2023-02-21T16:57:03;87302.56;;;8.58;40.25
21623;BME280;10973;46.706;12.340;2023-02-21T17:03:30;87316.16;;;8.31;40.87
21623;BME280;10973;46.706;12.340;2023-02-21T17:10:16;87325.97;;;8.11;41.30
21623;BME280;10973;46.706;12.340;2023-02-21T17:12:43;87317.63;;;8.02;41.37
21623;BME280;10973;46.706;12.340;2023-02-21T17:19:19;87325.56;;;7.79;41.68
21623;BME280;10973;46.706;12.340;2023-02-21T17:21:47;87326.31;;;7.80;41.56
21623;BME280;10973;46.706;12.340;2023-02-21T17:24:30;87333.00;;;7.74;42.01
21623;BME280;10973;46.706;12.340;2023-02-21T17:35:36;87344.69;;;7.54;41.62
21623;BME280;10973;46.706;12.340;2023-02-21T17:38:04;87349.53;;;7.52;41.88
21623;BME280;10973;46.706;12.340;2023-02-21T17:40:34;87354.81;;;7.55;41.84
21623;BME280;10973;46.706;12.340;2023-02-21T17:43:02;87350.59;;;7.47;42.25
21623;BME280;10973;46.706;12.340;2023-02-21T17:45:29;87362.19;;;7.46;42.32
21623;BME280;10973;46.706;12.340;2023-02-21T17:47:56;87358.09;;;7.49;41.97
21623;BME280;10973;46.706;12.340;2023-02-21T17:50:24;87359.59;;;7.50;41.65
21623;BME280;10973;46.706;12.340;2023-02-21T17:52:51;87365.50;;;7.43;42.36
21623;BME280;10973;46.706;12.340;2023-02-21T17:55:22;87362.88;;;7.43;42.16
21623;BME280;10973;46.706;12.340;2023-02-21T17:57:53;87357.22;;;7.41;42.06
21623;BME280;10973;46.706;12.340;2023-02-21T18:00:24;87358.25;;;7.33;42.33
21623;BME280;10973;46.706;12.340;2023-02-21T18:02:53;87366.78;;;7.30;42.16
21623;BME280;10973;46.706;12.340;2023-02-21T18:05:22;87370.75;;;7.20;42.22
21623;BME280;10973;46.706;12.340;2023-02-21T18:07:52;87374.41;;;7.16;42.40
21623;BME280;10973;46.706;12.340;2023-02-21T18:10:22;87362.78;;;7.13;42.63
21623;BME280;10973;46.706;12.340;2023-02-21T18:12:53;87377.22;;;7.04;42.92
21623;BME280;10973;46.706;12.340;2023-02-21T18:15:24;87383.94;;;7.01;42.71
21623;BME280;10973;46.706;12.340;2023-02-21T18:17:52;87374.81;;;6.95;42.89
21623;BME280;10973;46.706;12.340;2023-02-21T18:20:19;87381.09;;;6.91;42.95
21623;BME280;10973;46.706;12.340;2023-02-21T18:22:47;87380.66;;;6.85;42.96
21623;BME280;10973;46.706;12.340;2023-02-21T18:25:17;87376.09;;;6.82;43.50
21623;BME280;10973;46.706;12.340;2023-02-21T18:27:49;87369.34;;;6.81;43.42
21623;BME280;10973;46.706;12.340;2023-02-21T18:30:19;87375.56;;;6.73;43.32
21623;BME280;10973;46.706;12.340;2023-02-21T18:32:47;87371.72;;;6.67;43.36
21623;BME280;10973;46.706;12.340;2023-02-21T18:35:15;87371.31;;;6.65;43.47
21623;BME280;10973;46.706;12.340;2023-02-21T18:37:44;87378.75;;;6.63;43.02
21623;BME280;10973;46.706;12.340;2023-02-21T18:40:14;87374.13;;;6.57;43.52
21623;BME280;10973;46.706;12.340;2023-02-21T18:42:42;87374.06;;;6.53;43.28
21623;BME280;10973;46.706;12.340;2023-02-21T18:45:11;87372.13;;;6.50;43.13
21623;BME280;10973;46.706;12.340;2023-02-21T18:47:38;87375.78;;;6.45;42.98
21623;BME280;10973;46.706;12.340;2023-02-21T18:50:06;87376.56;;;6.46;43.34
21623;BME280;10973;46.706;12.340;2023-02-21T18:52:34;87381.38;;;6.44;43.39
21623;BME280;10973;46.706;12.340;2023-02-21T18:55:02;87372.22;;;6.34;43.50
21623;BME280;10973;46.706;12.340;2023-02-21T18:57:30;87383.72;;;6.30;43.83
21623;BME280;10973;46.706;12.340;2023-02-21T18:59:57;87370.91;;;6.25;43.65
21623;BME280;10973;46.706;12.340;2023-02-21T19:02:25;87377.59;;;6.22;44.02
21623;BME280;10973;46.706;12.340;2023-02-21T19:04:53;87373.38;;;6.18;44.04
21623;BME280;10973;46.706;12.340;2023-02-21T19:07:20;87379.22;;;6.11;43.82
21623;BME280;10973;46.706;12.340;2023-02-21T19:09:48;87379.22;;;6.11;43.90
21623;BME280;10973;46.706;12.340;2023-02-21T19:12:16;87379.94;;;6.08;43.82
21623;BME280;10973;46.706;12.340;2023-02-21T19:14:44;87374.28;;;6.06;44.19
21623;BME280;10973;46.706;12.340;2023-02-21T19:17:11;87377.94;;;6.02;44.02
21623;BME280;10973;46.706;12.340;2023-02-21T19:19:39;87379.69;;;5.98;44.02
21623;BME280;10973;46.706;12.340;2023-02-21T19:22:06;87387.13;;;5.96;44.44
21623;BME280;10973;46.706;12.340;2023-02-21T19:24:36;87390.84;;;5.95;44.50
21623;BME280;10973;46.706;12.340;2023-02-21T19:27:04;87394.56;;;5.94;44.17
21623;BME280;10973;46.706;12.340;2023-02-21T19:29:31;87388.16;;;5.91;44.33
21623;BME280;10973;46.706;12.340;2023-02-21T19:31:58;87395.94;;;5.88;44.41